createdAt,value
2024-04-22T00:00:48.342Z,80.83
2024-04-22T00:01:48.328Z,80.59
2024-04-22T00:02:48.390Z,80.80
2024-04-22T00:03:48.229Z,80.59
2024-04-22T00:04:48.240Z,80.80
2024-04-22T00:05:48.211Z,80.59
2024-04-22T00:06:48.337Z,80.49
2024-04-22T00:07:48.201Z,80.28
2024-04-22T00:08:48.186Z,80.49
2024-04-22T00:09:48.173Z,80.28
2024-04-22T00:10:48.212Z,80.69
2024-04-22T00:11:48.214Z,80.80
2024-04-22T00:12:48.152Z,81.01
2024-04-22T00:13:48.176Z,80.38
2024-04-22T00:14:48.129Z,80.59
2024-04-22T00:15:48.136Z,80.28
2024-04-22T00:16:48.193Z,79.55
2024-04-22T00:17:48.172Z,79.44
2024-04-22T00:18:48.114Z,79.80
2024-04-22T00:19:48.362Z,79.55
2024-04-22T00:20:48.096Z,79.34
2024-04-22T00:21:48.079Z,79.65
2024-04-22T00:22:48.086Z,79.97
2024-04-22T00:23:48.047Z,79.97
2024-04-22T00:24:48.177Z,79.97
2024-04-22T00:25:48.034Z,79.86
2024-04-22T00:26:48.024Z,79.55
2024-04-22T00:27:48.015Z,79.34
2024-04-22T00:28:48.044Z,80.18
2024-04-22T00:29:48.034Z,80.38
2024-04-22T00:30:48.025Z,79.65
2024-04-22T00:31:48.007Z,80.28
2024-04-22T00:32:48.092Z,80.32
2024-04-22T00:33:47.984Z,80.63
2024-04-22T00:34:47.973Z,80.73
2024-04-22T00:35:47.947Z,80.83
2024-04-22T00:36:47.947Z,81.15
2024-04-22T00:37:48.933Z,80.73
2024-04-22T00:38:47.936Z,81.04
2024-04-22T00:39:47.940Z,81.04
2024-04-22T00:40:47.924Z,81.08
2024-04-22T00:41:47.901Z,81.49
2024-04-22T00:42:47.905Z,82.22
2024-04-22T00:43:47.968Z,82.12
2024-04-22T00:44:47.997Z,81.91
2024-04-22T00:45:47.948Z,81.70
2024-04-22T00:46:47.913Z,82.01
2024-04-22T00:47:47.915Z,81.91
2024-04-22T00:48:47.855Z,82.12
2024-04-22T00:49:47.844Z,82.43
2024-04-22T00:50:47.817Z,82.22
2024-04-22T00:51:47.811Z,82.22
2024-04-22T00:52:47.820Z,82.32
2024-04-22T00:53:47.815Z,82.22
2024-04-22T00:54:47.799Z,82.22
2024-04-22T00:55:47.788Z,82.32
2024-04-22T00:56:47.807Z,82.74
2024-04-22T00:57:47.767Z,82.64
2024-04-22T00:58:47.765Z,82.64
2024-04-22T00:59:47.755Z,82.74
2024-04-22T01:00:47.765Z,82.84
2024-04-22T01:01:47.821Z,82.84
2024-04-22T01:02:47.744Z,82.89
2024-04-22T01:03:47.736Z,83.05
2024-04-22T01:04:47.801Z,82.68
2024-04-22T01:05:47.681Z,82.84
2024-04-22T01:06:47.692Z,82.57
2024-04-22T01:07:47.733Z,82.89
2024-04-22T01:08:47.657Z,82.78
2024-04-22T01:09:47.649Z,82.68
2024-04-22T01:10:47.731Z,83.20
2024-04-22T01:11:47.697Z,83.61
2024-04-22T01:12:47.615Z,83.09
2024-04-22T01:13:47.650Z,82.78
2024-04-22T01:14:47.607Z,82.99
2024-04-22T01:15:47.598Z,82.36
2024-04-22T01:16:47.633Z,82.46
2024-04-22T01:17:47.648Z,82.46
2024-04-22T01:18:47.563Z,82.78
2024-04-22T01:19:47.603Z,82.68
2024-04-22T01:21:20.021Z,82.26
2024-04-22T01:21:47.547Z,82.89
2024-04-22T01:22:47.592Z,82.51
2024-04-22T01:23:47.525Z,83.03
2024-04-22T01:24:47.516Z,82.82
2024-04-22T01:25:47.549Z,82.61
2024-04-22T01:26:47.510Z,83.13
2024-04-22T01:27:47.489Z,83.23
2024-04-22T01:28:47.572Z,83.54
2024-04-22T01:29:47.499Z,83.96
2024-04-22T01:30:47.472Z,84.17
2024-04-22T01:31:47.557Z,84.17
2024-04-22T01:32:47.469Z,83.96
2024-04-22T01:33:47.435Z,84.48
2024-04-22T01:34:47.478Z,84.42
2024-04-22T01:35:47.512Z,84.48
2024-04-22T01:36:47.414Z,85.04
2024-04-22T01:37:47.435Z,84.42
2024-04-22T01:38:47.387Z,85.00
2024-04-22T01:39:47.400Z,85.21
2024-04-22T01:40:47.414Z,85.14
2024-04-22T01:41:47.366Z,85.46
2024-04-22T01:42:47.356Z,85.25
2024-04-22T01:43:47.367Z,85.14
2024-04-22T01:44:47.354Z,85.46
2024-04-22T01:45:47.371Z,85.46
2024-04-22T01:46:47.372Z,84.94
2024-04-22T01:47:47.341Z,85.46
2024-04-22T01:48:47.306Z,85.25
2024-04-22T01:49:47.333Z,85.46
2024-04-22T01:50:47.305Z,85.35
2024-04-22T01:51:47.321Z,85.31
2024-04-22T01:52:47.320Z,85.11
2024-04-22T01:53:47.257Z,85.21
2024-04-22T01:54:47.296Z,84.80
2024-04-22T01:55:47.273Z,84.69
2024-04-22T01:56:47.231Z,84.90
2024-04-22T01:57:47.240Z,84.83
2024-04-22T01:58:47.255Z,85.46
2024-04-22T01:59:47.248Z,85.31
2024-04-22T02:00:47.215Z,85.31
2024-04-22T02:01:47.229Z,85.42
2024-04-22T02:02:47.288Z,85.31
2024-04-22T02:03:47.243Z,85.42
2024-04-22T02:04:47.172Z,85.52
2024-04-22T02:05:47.147Z,85.21
2024-04-22T02:06:47.146Z,84.69
2024-04-22T02:07:47.245Z,85.00
2024-04-22T02:08:47.152Z,84.69
2024-04-22T02:09:47.127Z,85.11
2024-04-22T02:10:47.237Z,85.42
2024-04-22T02:11:47.138Z,85.42
2024-04-22T02:12:47.100Z,85.31
2024-04-22T02:13:47.171Z,85.42
2024-04-22T02:14:47.072Z,85.21
2024-04-22T02:15:47.060Z,85.63
2024-04-22T02:16:47.161Z,85.00
2024-04-22T02:17:47.151Z,85.83
2024-04-22T02:18:47.042Z,85.94
2024-04-22T02:19:47.062Z,86.60
2024-04-22T02:20:47.019Z,86.46
2024-04-22T02:21:47.009Z,86.67
2024-04-22T02:22:47.047Z,86.46
2024-04-22T02:23:47.010Z,86.35
2024-04-22T02:24:47.008Z,86.25
2024-04-22T02:25:47.046Z,86.57
2024-04-22T02:26:47.003Z,86.67
2024-04-22T02:27:47.050Z,86.57
2024-04-22T02:28:46.976Z,86.88
2024-04-22T02:29:47.944Z,86.88
2024-04-22T02:30:46.939Z,86.67
2024-04-22T02:31:46.979Z,86.57
2024-04-22T02:32:46.993Z,86.42
2024-04-22T02:33:46.911Z,86.35
2024-04-22T02:34:46.980Z,86.32
2024-04-22T02:35:46.893Z,86.52
2024-04-22T02:36:46.898Z,86.83
2024-04-22T02:37:46.893Z,86.57
2024-04-22T02:38:46.887Z,86.35
2024-04-22T02:39:46.853Z,86.32
2024-04-22T02:40:46.929Z,86.63
2024-04-22T02:41:47.022Z,86.42
2024-04-22T02:42:46.845Z,86.73
2024-04-22T02:43:46.847Z,86.73
2024-04-22T02:44:46.815Z,86.80
2024-04-22T02:45:46.908Z,86.80
2024-04-22T02:46:46.845Z,86.59
2024-04-22T02:47:46.836Z,86.17
2024-04-22T02:48:46.780Z,86.07
2024-04-22T02:49:46.820Z,85.86
2024-04-22T02:50:46.773Z,85.75
2024-04-22T02:51:46.758Z,85.86
2024-04-22T02:52:46.769Z,85.75
2024-04-22T02:53:46.730Z,85.34
2024-04-22T02:54:46.719Z,85.55
2024-04-22T02:55:46.778Z,85.24
2024-04-22T02:56:46.706Z,85.34
2024-04-22T02:57:46.692Z,84.72
2024-04-22T02:58:46.807Z,84.82
2024-04-22T02:59:46.709Z,84.82
2024-04-22T03:00:46.714Z,84.82
2024-04-22T03:01:46.672Z,85.24
2024-04-22T03:02:46.720Z,85.30
2024-04-22T03:03:46.721Z,85.30
2024-04-22T03:04:46.668Z,85.24
2024-04-22T03:05:46.621Z,85.03
2024-04-22T03:06:46.622Z,85.10
2024-04-22T03:07:46.673Z,85.20
2024-04-22T03:08:46.595Z,84.61
2024-04-22T03:09:46.620Z,84.82
2024-04-22T03:10:46.608Z,85.13
2024-04-22T03:11:46.598Z,85.34
2024-04-22T03:12:46.558Z,85.51
2024-04-22T03:13:49.404Z,85.10
2024-04-22T03:14:47.560Z,85.10
2024-04-22T03:15:46.532Z,85.20
2024-04-22T03:16:46.598Z,85.30
2024-04-22T03:17:46.540Z,85.34
2024-04-22T03:18:46.517Z,85.30
2024-04-22T03:19:46.515Z,85.34
2024-04-22T03:20:46.493Z,85.20
2024-04-22T03:21:46.478Z,84.89
2024-04-22T03:22:46.502Z,85.34
2024-04-22T03:23:46.516Z,85.34
2024-04-22T03:24:46.456Z,85.51
2024-04-22T03:25:46.503Z,84.99
2024-04-22T03:26:46.438Z,84.92
2024-04-22T03:27:46.440Z,85.41
2024-04-22T03:28:46.450Z,85.72
2024-04-22T03:29:46.415Z,85.61
2024-04-22T03:30:46.401Z,85.61
2024-04-22T03:31:46.466Z,85.72
2024-04-22T03:32:46.418Z,85.61
2024-04-22T03:33:46.371Z,85.61
2024-04-22T03:34:46.394Z,85.72
2024-04-22T03:35:46.353Z,85.61
2024-04-22T03:36:46.369Z,85.51
2024-04-22T03:37:46.400Z,85.61
2024-04-22T03:38:46.352Z,85.61
2024-04-22T03:39:46.321Z,85.82
2024-04-22T03:40:46.319Z,85.72
2024-04-22T03:41:46.312Z,86.13
2024-04-22T03:42:46.310Z,85.93
2024-04-22T03:43:46.321Z,86.17
2024-04-22T03:44:46.279Z,86.59
2024-04-22T03:45:46.273Z,86.44
2024-04-22T03:46:46.349Z,86.17
2024-04-22T03:47:46.270Z,87.01
2024-04-22T03:48:46.248Z,86.69
2024-04-22T03:49:46.275Z,87.42
2024-04-22T03:50:46.224Z,87.63
2024-04-22T03:51:46.247Z,87.84
2024-04-22T03:52:46.267Z,87.52
2024-04-22T03:53:46.206Z,86.80
2024-04-22T03:54:46.192Z,86.88
2024-04-22T03:55:46.219Z,88.43
2024-04-22T03:56:46.203Z,89.10
2024-04-22T03:57:49.772Z,89.17
2024-04-22T03:58:46.198Z,89.27
2024-04-22T03:59:46.217Z,89.06
2024-04-22T04:00:46.367Z,89.17
2024-04-22T04:01:46.241Z,89.54
2024-04-22T04:02:46.134Z,89.43
2024-04-22T04:03:46.163Z,88.40
2024-04-22T04:04:46.197Z,88.50
2024-04-22T04:05:46.155Z,88.46
2024-04-22T04:06:46.084Z,88.56
2024-04-22T04:07:46.154Z,87.94
2024-04-22T04:08:46.071Z,87.63
2024-04-22T04:09:46.079Z,87.84
2024-04-22T04:10:46.133Z,88.04
2024-04-22T04:11:46.083Z,88.04
2024-04-22T04:12:46.036Z,87.52
2024-04-22T04:13:46.032Z,87.27
2024-04-22T04:14:46.066Z,87.48
2024-04-22T04:15:46.009Z,86.86
2024-04-22T04:16:46.041Z,86.80
2024-04-22T04:17:46.013Z,87.11
2024-04-22T04:18:45.969Z,87.88
2024-04-22T04:19:46.026Z,88.19
2024-04-22T04:20:45.958Z,88.75
2024-04-22T04:21:45.953Z,90.10
2024-04-22T04:22:45.965Z,90.31
2024-04-22T04:23:45.925Z,90.52
2024-04-22T04:24:45.938Z,90.52
2024-04-22T04:25:45.988Z,90.31
2024-04-22T04:26:45.900Z,90.20
2024-04-22T04:27:45.890Z,90.41
2024-04-22T04:28:48.714Z,90.06
2024-04-22T04:29:46.888Z,90.00
2024-04-22T04:30:45.860Z,90.41
2024-04-22T04:31:45.914Z,90.89
2024-04-22T04:32:45.906Z,90.47
2024-04-22T04:33:45.860Z,89.54
2024-04-22T04:34:45.842Z,89.37
2024-04-22T04:35:45.819Z,89.79
2024-04-22T04:36:45.831Z,90.06
2024-04-22T04:37:45.812Z,89.79
2024-04-22T04:38:46.017Z,89.54
2024-04-22T04:39:45.778Z,89.64
2024-04-22T04:40:45.832Z,89.54
2024-04-22T04:41:45.756Z,89.58
2024-04-22T04:42:45.761Z,89.54
2024-04-22T04:43:45.862Z,90.37
2024-04-22T04:44:45.734Z,89.43
2024-04-22T04:45:45.724Z,89.75
2024-04-22T04:46:45.761Z,90.16
2024-04-22T04:47:45.814Z,91.25
2024-04-22T04:48:45.736Z,90.47
2024-04-22T04:49:45.732Z,91.52
2024-04-22T04:50:45.678Z,90.89
2024-04-22T04:51:45.668Z,90.79
2024-04-22T04:52:45.712Z,91.72
2024-04-22T04:53:45.651Z,91.52
2024-04-22T04:54:45.644Z,91.72
2024-04-22T04:55:45.672Z,91.35
2024-04-22T04:56:45.642Z,91.93
2024-04-22T04:57:45.639Z,91.31
2024-04-22T04:58:45.668Z,92.03
2024-04-22T04:59:45.597Z,91.93
2024-04-22T05:00:45.653Z,92.03
2024-04-22T05:01:45.702Z,91.93
2024-04-22T05:02:45.636Z,91.93
2024-04-22T05:03:45.591Z,91.93
2024-04-22T05:04:45.642Z,91.93
2024-04-22T05:05:45.546Z,91.10
2024-04-22T05:06:45.555Z,91.52
2024-04-22T05:07:45.556Z,92.24
2024-04-22T05:08:45.529Z,91.83
2024-04-22T05:09:45.515Z,91.41
2024-04-22T05:10:45.632Z,91.93
2024-04-22T05:11:45.541Z,91.99
2024-04-22T05:12:45.483Z,91.37
2024-04-22T05:13:45.538Z,91.06
2024-04-22T05:14:45.495Z,91.37
2024-04-22T05:15:45.486Z,91.47
2024-04-22T05:16:45.480Z,91.33
2024-04-22T05:17:45.528Z,91.37
2024-04-22T05:18:45.554Z,89.60
2024-04-22T05:19:45.589Z,90.02
2024-04-22T05:20:45.427Z,89.56
2024-04-22T05:21:45.433Z,89.98
2024-04-22T05:22:45.435Z,89.25
2024-04-22T05:23:45.398Z,88.67
2024-04-22T05:24:45.461Z,88.87
2024-04-22T05:25:45.407Z,89.56
2024-04-22T05:26:45.351Z,89.67
2024-04-22T05:27:45.358Z,89.87
2024-04-22T05:28:45.412Z,89.87
2024-04-22T05:29:45.339Z,89.87
2024-04-22T05:30:45.330Z,89.36
2024-04-22T05:31:45.330Z,89.98
2024-04-22T05:32:45.375Z,89.46
2024-04-22T05:33:45.288Z,89.25
2024-04-22T05:34:45.445Z,90.29
2024-04-22T05:35:45.272Z,90.60
2024-04-22T05:36:45.263Z,91.53
2024-04-22T05:37:45.296Z,90.81
2024-04-22T05:38:45.373Z,89.67
2024-04-22T05:39:48.612Z,89.77
2024-04-22T05:40:46.294Z,89.70
2024-04-22T05:41:45.218Z,90.44
2024-04-22T05:42:45.225Z,90.44
2024-04-22T05:43:45.334Z,91.33
2024-04-22T05:44:45.193Z,89.29
2024-04-22T05:45:45.178Z,90.64
2024-04-22T05:46:45.239Z,90.64
2024-04-22T05:47:45.239Z,91.37
2024-04-22T05:48:45.166Z,91.37
2024-04-22T05:49:45.184Z,91.02
2024-04-22T05:50:45.130Z,90.75
2024-04-22T05:51:45.120Z,90.44
2024-04-22T05:52:45.179Z,90.23
2024-04-22T05:53:45.115Z,90.54
2024-04-22T05:54:45.101Z,91.47
2024-04-22T05:55:45.143Z,90.44
2024-04-22T05:56:45.088Z,90.75
2024-04-22T05:57:47.184Z,90.44
2024-04-22T05:58:45.121Z,91.78
2024-04-22T05:59:45.071Z,91.89
2024-04-22T06:00:45.059Z,91.47
2024-04-22T06:01:45.084Z,91.58
2024-04-22T06:02:45.077Z,90.64
2024-04-22T06:03:45.028Z,90.12
2024-04-22T06:04:45.062Z,90.44
2024-04-22T06:05:45.002Z,90.54
2024-04-22T06:06:45.011Z,90.70
2024-04-22T06:07:45.048Z,90.64
2024-04-22T06:08:44.979Z,89.92
2024-04-22T06:09:44.971Z,90.23
2024-04-22T06:10:44.993Z,89.70
2024-04-22T06:11:57.178Z,90.70
2024-04-22T06:12:46.945Z,88.77
2024-04-22T06:13:44.980Z,90.23
2024-04-22T06:14:44.939Z,90.44
2024-04-22T06:15:44.920Z,89.64
2024-04-22T06:16:45.002Z,91.78
2024-04-22T06:17:44.930Z,91.06
2024-04-22T06:18:44.893Z,91.85
2024-04-22T06:19:44.987Z,90.23
2024-04-22T06:20:44.877Z,89.81
2024-04-22T06:21:44.888Z,89.98
2024-04-22T06:22:44.992Z,91.53
2024-04-22T06:23:45.287Z,90.50
2024-04-22T06:24:44.839Z,90.60
2024-04-22T06:25:44.884Z,89.04
2024-04-22T06:26:44.824Z,87.32
2024-04-22T06:27:44.812Z,88.77
2024-04-22T06:28:44.858Z,90.50
2024-04-22T06:29:44.800Z,90.60
2024-04-22T06:30:44.802Z,89.46
2024-04-22T06:31:44.837Z,89.25
2024-04-22T06:32:44.857Z,89.15
2024-04-22T06:33:44.772Z,89.15
2024-04-22T06:34:44.830Z,89.21
2024-04-22T06:35:44.753Z,90.04
2024-04-22T06:36:44.751Z,89.62
2024-04-22T06:37:44.771Z,88.59
2024-04-22T06:38:44.714Z,89.31
2024-04-22T06:39:44.747Z,89.11
2024-04-22T06:40:44.736Z,88.00
2024-04-22T06:41:44.750Z,88.84
2024-04-22T06:42:44.699Z,88.21
2024-04-22T06:43:44.685Z,88.31
2024-04-22T06:44:44.679Z,88.52
2024-04-22T06:45:44.645Z,89.36
2024-04-22T06:46:44.695Z,90.39
2024-04-22T06:47:44.729Z,90.66
2024-04-22T06:48:44.633Z,87.79
2024-04-22T06:49:44.634Z,89.15
2024-04-22T06:50:44.608Z,88.38
2024-04-22T06:51:44.613Z,87.48
2024-04-22T06:52:44.670Z,89.00
2024-04-22T06:53:44.606Z,89.31
2024-04-22T06:54:44.559Z,89.06
2024-04-22T06:55:44.604Z,87.55
2024-04-22T06:56:46.281Z,88.96
2024-04-22T06:57:45.655Z,89.44
2024-04-22T06:58:44.587Z,86.39
2024-04-22T06:59:44.515Z,86.55
2024-04-22T07:00:44.563Z,86.15
2024-04-22T07:01:44.550Z,85.69
2024-04-22T07:02:44.546Z,84.59
2024-04-22T07:03:44.689Z,83.83
2024-04-22T07:04:44.613Z,84.34
2024-04-22T07:05:44.466Z,83.06
2024-04-22T07:06:44.452Z,80.51
2024-04-22T07:07:44.485Z,84.23
2024-04-22T07:08:44.444Z,84.96
2024-04-22T07:09:44.427Z,83.00
2024-04-22T07:10:44.537Z,84.20
2024-04-22T07:11:44.450Z,83.12
2024-04-22T07:12:44.405Z,82.92
2024-04-22T07:13:44.419Z,83.23
2024-04-22T07:14:44.398Z,82.19
2024-04-22T07:15:44.371Z,81.40
2024-04-22T07:16:44.474Z,81.79
2024-04-22T07:17:44.421Z,83.45
2024-04-22T07:18:44.359Z,84.21
2024-04-22T07:19:44.401Z,83.42
2024-04-22T07:21:18.792Z,85.04
2024-04-22T07:21:44.351Z,86.60
2024-04-22T07:22:44.939Z,83.69
2024-04-22T07:23:44.320Z,83.84
2024-04-22T07:24:54.779Z,85.77
2024-04-22T07:25:46.330Z,86.18
2024-04-22T07:26:44.283Z,87.53
2024-04-22T07:27:44.290Z,85.56
2024-04-22T07:28:44.306Z,84.42
2024-04-22T07:29:44.256Z,84.83
2024-04-22T07:30:44.281Z,84.28
2024-04-22T07:31:44.334Z,85.52
2024-04-22T07:32:44.357Z,85.69
2024-04-22T07:33:44.279Z,84.75
2024-04-22T07:34:44.235Z,82.23
2024-04-22T07:35:44.216Z,81.51
2024-04-22T07:36:44.191Z,82.29
2024-04-22T07:37:44.404Z,83.50
2024-04-22T07:38:44.171Z,79.98
2024-04-22T07:39:44.273Z,81.74
2024-04-22T07:40:44.210Z,76.84
2024-04-22T07:41:44.147Z,79.26
2024-04-22T07:42:44.144Z,79.02
2024-04-22T07:43:44.224Z,77.94
2024-04-22T07:44:44.149Z,76.39
2024-04-22T07:45:44.118Z,77.84
2024-04-22T07:46:44.278Z,78.91
2024-04-22T07:47:44.176Z,77.50
2024-04-22T07:48:44.085Z,78.19
2024-04-22T07:49:44.145Z,79.74
2024-04-22T07:50:45.338Z,79.85
2024-04-22T07:51:44.059Z,79.33
2024-04-22T07:52:44.100Z,80.09
2024-04-22T07:53:44.054Z,81.99
2024-04-22T07:54:44.043Z,81.99
2024-04-22T07:55:44.062Z,84.48
2024-04-22T07:56:46.106Z,85.31
2024-04-22T07:57:44.013Z,80.85
2024-04-22T07:58:44.145Z,81.72
2024-04-22T07:59:44.001Z,83.07
2024-04-22T08:00:44.060Z,82.39
2024-04-22T08:01:43.996Z,83.84
2024-04-22T08:02:43.991Z,84.73
2024-04-22T08:03:43.987Z,81.82
2024-04-22T08:04:43.960Z,85.42
2024-04-22T08:05:43.929Z,84.17
2024-04-22T08:06:43.929Z,85.48
2024-04-22T08:07:43.980Z,83.89
2024-04-22T08:08:43.912Z,79.47
2024-04-22T08:09:43.898Z,80.19
2024-04-22T08:10:44.017Z,82.68
2024-04-22T08:11:43.889Z,80.30
2024-04-22T08:12:43.894Z,82.48
2024-04-22T08:13:43.995Z,83.10
2024-04-22T08:14:43.851Z,81.75
2024-04-22T08:15:43.854Z,81.89
2024-04-22T08:16:43.918Z,85.06
2024-04-22T08:17:43.919Z,83.10
2024-04-22T08:18:43.830Z,83.37
2024-04-22T08:19:43.855Z,80.78
2024-04-22T08:20:43.798Z,78.99
2024-04-22T08:21:43.894Z,82.10
2024-04-22T08:22:43.855Z,82.82
2024-04-22T08:23:43.768Z,83.86
2024-04-22T08:24:43.764Z,85.69
2024-04-22T08:25:43.770Z,82.89
2024-04-22T08:26:43.762Z,82.86
2024-04-22T08:27:43.738Z,82.86
2024-04-22T08:28:43.770Z,82.03
2024-04-22T08:29:43.715Z,80.85
2024-04-22T08:30:43.711Z,79.33
2024-04-22T08:31:43.822Z,82.13
2024-04-22T08:32:43.772Z,83.31
2024-04-22T08:33:43.872Z,83.99
2024-04-22T08:34:43.778Z,82.17
2024-04-22T08:35:43.680Z,83.51
2024-04-22T08:36:43.745Z,81.71
2024-04-22T08:37:43.734Z,82.40
2024-04-22T08:38:43.642Z,80.95
2024-04-22T08:39:43.641Z,80.85
2024-04-22T08:40:43.661Z,81.43
2024-04-22T08:41:43.617Z,80.05
2024-04-22T08:42:43.601Z,79.16
2024-04-22T08:43:43.711Z,82.05
2024-04-22T08:44:43.604Z,77.95
2024-04-22T08:45:43.599Z,78.57
2024-04-22T08:46:43.635Z,81.47
2024-04-22T08:47:43.639Z,81.47
2024-04-22T08:48:43.578Z,81.47
2024-04-22T08:49:43.890Z,81.43
2024-04-22T08:50:43.572Z,79.57
2024-04-22T08:51:43.543Z,77.53
2024-04-22T08:52:51.367Z,76.29
2024-04-22T08:53:45.523Z,80.12
2024-04-22T08:54:43.544Z,77.74
2024-04-22T08:55:43.557Z,74.63
2024-04-22T08:56:43.499Z,78.47
2024-04-22T08:57:43.480Z,81.64
2024-04-22T08:58:43.497Z,75.32
2024-04-22T08:59:45.414Z,78.64
2024-04-22T09:00:43.493Z,79.36
2024-04-22T09:01:43.465Z,78.57
2024-04-22T09:02:43.565Z,76.19
2024-04-22T09:03:43.448Z,80.16
2024-04-22T09:04:43.530Z,80.12
2024-04-22T09:05:43.563Z,79.91
2024-04-22T09:06:43.410Z,81.57
2024-04-22T09:07:43.427Z,77.53
2024-04-22T09:08:43.399Z,77.33
2024-04-22T09:10:00.657Z,79.85
2024-04-22T09:11:21.185Z,80.88
2024-04-22T09:12:05.744Z,79.16
2024-04-22T09:12:45.504Z,82.58
2024-04-22T09:13:43.482Z,81.48
2024-04-22T09:14:43.472Z,83.97
2024-04-22T09:15:43.324Z,85.06
2024-04-22T09:16:43.366Z,83.10
2024-04-22T09:17:43.426Z,83.80
2024-04-22T09:18:43.420Z,85.02
2024-04-22T09:19:43.392Z,86.36
2024-04-22T09:20:43.278Z,87.61
2024-04-22T09:21:43.269Z,88.48
2024-04-22T09:22:43.318Z,87.59
2024-04-22T09:23:43.336Z,91.33
2024-04-22T09:24:43.240Z,91.64
2024-04-22T09:25:43.305Z,93.20
2024-04-22T09:26:43.222Z,91.53
2024-04-22T09:27:44.858Z,92.26
2024-04-22T09:28:43.302Z,92.05
2024-04-22T09:29:43.221Z,90.85
2024-04-22T09:30:43.223Z,91.68
2024-04-22T09:31:43.367Z,91.52
2024-04-22T09:32:43.355Z,93.39
2024-04-22T09:33:43.233Z,92.76
2024-04-22T09:34:43.234Z,94.18
2024-04-22T09:35:43.233Z,94.28
2024-04-22T09:36:43.209Z,93.60
2024-04-22T09:37:44.437Z,95.15
2024-04-22T09:38:46.967Z,96.15
2024-04-22T09:39:44.114Z,95.99
2024-04-22T09:40:43.124Z,96.67
2024-04-22T09:41:43.258Z,96.04
2024-04-22T09:42:43.090Z,96.57
2024-04-22T09:43:47.945Z,94.18
2024-04-22T09:44:45.091Z,94.64
2024-04-22T09:45:43.096Z,94.96
2024-04-22T09:46:43.074Z,95.48
2024-04-22T09:47:43.221Z,93.87
2024-04-22T09:48:43.177Z,95.11
2024-04-22T09:49:43.133Z,94.80
2024-04-22T09:50:43.071Z,94.07
2024-04-22T09:51:43.022Z,93.72
2024-04-22T09:52:43.072Z,93.51
2024-04-22T09:53:42.979Z,92.78
2024-04-22T09:54:42.976Z,94.24
2024-04-22T09:55:43.108Z,94.30
2024-04-22T09:56:43.051Z,91.95
2024-04-22T09:57:43.011Z,92.11
2024-04-22T09:58:42.978Z,90.50
2024-04-22T09:59:42.939Z,91.95
2024-04-22T10:00:42.949Z,92.11
2024-04-22T10:01:43.028Z,92.74
2024-04-22T10:02:43.068Z,94.36
2024-04-22T10:03:42.989Z,94.01
2024-04-22T10:04:43.009Z,90.41
2024-04-22T10:05:43.063Z,91.03
2024-04-22T10:06:42.932Z,92.14
2024-04-22T10:07:43.057Z,91.20
2024-04-22T10:08:42.854Z,90.44
2024-04-22T10:09:42.850Z,90.50
2024-04-22T10:10:43.059Z,89.36
2024-04-22T10:11:42.990Z,88.69
2024-04-22T10:12:42.965Z,85.38
2024-04-22T10:13:42.889Z,85.06
2024-04-22T10:14:42.831Z,85.69
2024-04-22T10:15:42.864Z,81.65
2024-04-22T10:16:42.815Z,81.65
2024-04-22T10:17:42.945Z,80.09
2024-04-22T10:18:42.964Z,82.06
2024-04-22T10:19:42.921Z,82.17
2024-04-22T10:20:42.768Z,82.23
2024-04-22T10:21:42.742Z,81.40
2024-04-22T10:22:42.784Z,84.47
2024-04-22T10:23:42.745Z,84.60
2024-04-22T10:24:42.729Z,83.73
2024-04-22T10:25:42.742Z,79.05
2024-04-22T10:26:52.772Z,77.56
2024-04-22T10:27:44.817Z,77.94
2024-04-22T10:28:42.732Z,77.59
2024-04-22T10:29:43.217Z,73.95
2024-04-22T10:30:42.668Z,74.60
2024-04-22T10:31:42.686Z,76.43
2024-04-22T10:32:42.679Z,76.77
2024-04-22T10:33:42.696Z,75.95
2024-04-22T10:34:42.625Z,73.09
2024-04-22T10:35:42.609Z,70.20
2024-04-22T10:36:42.607Z,68.41
2024-04-22T10:37:42.663Z,68.59
2024-04-22T10:38:42.604Z,67.66
2024-04-22T10:39:42.579Z,65.55
2024-04-22T10:40:42.603Z,68.34
2024-04-22T10:41:42.559Z,68.30
2024-04-22T10:42:42.568Z,66.38
2024-04-22T10:43:42.552Z,69.78
2024-04-22T10:44:42.528Z,69.99
2024-04-22T10:45:42.519Z,72.95
2024-04-22T10:46:42.566Z,70.03
2024-04-22T10:47:42.678Z,71.47
2024-04-22T10:48:42.580Z,67.83
2024-04-22T10:49:42.683Z,70.45
2024-04-22T10:50:42.491Z,67.49
2024-04-22T10:51:42.478Z,66.22
2024-04-22T10:52:42.517Z,64.37
2024-04-22T10:53:42.460Z,65.15
2024-04-22T10:54:42.456Z,67.86
2024-04-22T10:55:42.479Z,72.85
2024-04-22T10:56:42.455Z,66.28
2024-04-22T10:57:42.433Z,64.25
2024-04-22T10:58:42.471Z,72.88
2024-04-22T10:59:42.383Z,67.73
2024-04-22T11:00:42.427Z,64.02
2024-04-22T11:01:42.493Z,62.52
2024-04-22T11:02:42.525Z,68.39
2024-04-22T11:03:42.392Z,66.74
2024-04-22T11:04:42.395Z,63.72
2024-04-22T11:05:42.454Z,63.31
2024-04-22T11:06:42.326Z,64.86
2024-04-22T11:07:42.321Z,61.15
2024-04-22T11:08:42.295Z,56.65
2024-04-22T11:09:42.288Z,65.61
2024-04-22T11:10:43.858Z,65.92
2024-04-22T11:11:42.438Z,62.31
2024-04-22T11:12:42.277Z,59.74
2024-04-22T11:13:42.320Z,61.21
2024-04-22T11:14:42.233Z,61.54
2024-04-22T11:15:42.251Z,66.08
2024-04-22T11:16:42.273Z,65.84
2024-04-22T11:17:42.236Z,60.41
2024-04-22T11:18:42.232Z,58.17
2024-04-22T11:19:42.251Z,59.23
2024-04-22T11:20:42.173Z,62.43
2024-04-22T11:21:42.184Z,63.43
2024-04-22T11:22:42.206Z,55.49
2024-04-22T11:23:42.158Z,57.18
2024-04-22T11:24:42.136Z,59.74
2024-04-22T11:25:42.185Z,58.65
2024-04-22T11:26:42.145Z,57.01
2024-04-22T11:27:42.122Z,59.47
2024-04-22T11:28:42.125Z,60.30
2024-04-22T11:29:42.096Z,65.31
2024-04-22T11:30:42.530Z,64.18
2024-04-22T11:31:42.129Z,56.67
2024-04-22T11:32:42.117Z,59.75
2024-04-22T11:33:42.078Z,55.54
2024-04-22T11:34:42.059Z,53.61
2024-04-22T11:35:42.154Z,54.22
2024-04-22T11:36:42.025Z,53.43
2024-04-22T11:37:42.062Z,54.53
2024-04-22T11:38:42.014Z,55.02
2024-04-22T11:39:42.005Z,62.99
2024-04-22T11:40:42.044Z,54.10
2024-04-22T11:41:41.975Z,52.61
2024-04-22T11:42:41.970Z,51.40
2024-04-22T11:43:41.971Z,51.53
2024-04-22T11:44:41.961Z,49.74
2024-04-22T11:45:41.956Z,51.91
2024-04-22T11:46:42.070Z,52.99
2024-04-22T11:47:42.043Z,51.12
2024-04-22T11:48:41.927Z,51.81
2024-04-22T11:49:42.038Z,48.98
2024-04-22T11:50:41.910Z,51.45
2024-04-22T11:51:41.873Z,49.98
2024-04-22T11:52:41.902Z,58.50
2024-04-22T11:53:41.880Z,55.28
2024-04-22T11:54:41.962Z,60.83
2024-04-22T11:55:41.881Z,54.74
2024-04-22T11:56:41.824Z,57.37
2024-04-22T11:57:41.807Z,61.49
2024-04-22T11:58:41.893Z,57.78
2024-04-22T11:59:42.803Z,57.39
2024-04-22T12:00:41.810Z,57.01
2024-04-22T12:01:41.789Z,54.17
2024-04-22T12:02:41.761Z,51.49
2024-04-22T12:03:41.757Z,52.50
2024-04-22T12:04:41.973Z,51.85
2024-04-22T12:05:41.801Z,51.62
2024-04-22T12:06:41.723Z,50.36
2024-04-22T12:07:41.838Z,47.55
2024-04-22T12:08:41.839Z,49.61
2024-04-22T12:09:41.690Z,50.72
2024-04-22T12:10:41.749Z,57.17
2024-04-22T12:11:41.699Z,57.89
2024-04-22T12:12:41.674Z,59.95
2024-04-22T12:13:41.731Z,59.33
2024-04-22T12:14:41.715Z,54.58
2024-04-22T12:15:41.654Z,50.15
2024-04-22T12:16:41.702Z,49.91
2024-04-22T12:17:41.669Z,49.95
2024-04-22T12:18:41.631Z,49.49
2024-04-22T12:19:41.627Z,51.32
2024-04-22T12:20:42.327Z,50.06
2024-04-22T12:21:41.586Z,47.47
2024-04-22T12:22:41.644Z,53.15
2024-04-22T12:23:41.558Z,53.03
2024-04-22T12:24:41.553Z,49.85
2024-04-22T12:25:41.569Z,50.56
2024-04-22T12:26:41.538Z,53.25
2024-04-22T12:27:41.580Z,49.97
2024-04-22T12:28:41.589Z,49.69
2024-04-22T12:29:41.507Z,47.74
2024-04-22T12:30:41.499Z,46.67
2024-04-22T12:31:41.561Z,46.54
2024-04-22T12:32:41.543Z,49.59
2024-04-22T12:33:51.173Z,49.57
2024-04-22T12:34:43.509Z,47.68
2024-04-22T12:35:41.457Z,46.84
2024-04-22T12:36:41.551Z,41.95
2024-04-22T12:37:41.446Z,42.71
2024-04-22T12:38:41.419Z,45.27
2024-04-22T12:39:41.412Z,50.26
2024-04-22T12:40:41.450Z,52.83
2024-04-22T12:41:41.399Z,50.67
2024-04-22T12:42:41.392Z,50.67
2024-04-22T12:43:41.396Z,46.01
2024-04-22T12:44:41.369Z,51.26
2024-04-22T12:45:41.345Z,47.77
2024-04-22T12:46:41.384Z,49.18
2024-04-22T12:47:41.360Z,50.54
2024-04-22T12:48:41.312Z,54.77
2024-04-22T12:49:41.319Z,50.92
2024-04-22T12:50:41.295Z,47.09
2024-04-22T12:51:41.309Z,45.78
2024-04-22T12:52:41.286Z,42.91